Seaside Heights, NJ (08751)

9:02 PM EDT on September 30, 2014 (GMT -0400)
O Street | Change Station
CLOSE
Current Station
Personal Weather Station
Location: Seaside Park, NJ
Elevation: 10 ft
Nearby Weather Stations

Elev 10 ft 39.93 °N, 74.08 °W | Updated 12 minutes ago

Partly Cloudy
Partly Cloudy
64.9 °F
Feels Like 64.9 °F
N
11.0
Wind Variable Wind from NE
Gusts 19.0 mph

Today
High -- | Low -- °F
--% Chance of Precip.
Yesterday
High -- | Low -- °F
Precip. -- in
6:51 AM 6:40 PM
Waxing Crescent, 42% visible
Pressure 29.96 in
Visibility 10.0 miles
Clouds Scattered Clouds 1700 ft
Scattered Clouds 2700 ft
Dew Point 62 °F
Humidity 89%
Rainfall 0.02 in
Snow Depth Not available.
UV 0 out of 12
Pollen 1.80 out of 12
Air Quality Not available.
Flu Activity Not available.
METAR KMJX 010055Z AUTO 06003KT 10SM SCT017 SCT027 17/15 A2996 RMK AO1

More Conditions Fewer Conditions

Pressure 29.96 in
Visibility 10.0 miles
Clouds Scattered Clouds 1700 ft
Scattered Clouds 2700 ft
Dew Point 62 °F
Humidity 89%
Rainfall 0.02 in
Snow Depth Not available.
UV 0 out of 12
Pollen 1.80 out of 12
Air Quality Not available.
Flu Activity Not available.
METAR KMJX 010055Z AUTO 06003KT 10SM SCT017 SCT027 17/15 A2996 RMK AO1

More Conditions Fewer Conditions

10-Day Weather Forecast

Almanac

Astronomy

Sep. 30, 2014 Rise Set
Actual Time 6:51 AM EDT 6:40 PM EDT
Civil Twilight 6:24 AM EDT 7:07 PM EDT
Nautical Twilight 5:53 AM EDT 7:38 PM EDT
Astronomical Twilight 5:21 AM EDT 8:10 PM EDT
Moon 12:57 PM EDT (9/30) 11:08 PM EDT (9/30)
Length of Visible Light 12h 42m
Length of Day
11h 48m
Tomorrow will be 2m 36s shorter.
Waxing Crescent, 42% of the Moon is Illuminated
Today
Waxing Crescent
Oct 1
First Quarter
Oct 8
Full
Oct 15
Last Quarter
Oct 23
New

Today's Extremes

State Highs State Lows

Community

WunderPhotos

Upload Photos

1,757,805 photos uploaded!

Nearby

Snow Depth

Station Depth Elevation
No new snow has been reported.

Earthquake Activity

City Distance Mag. Time & Date
No recent earthquake activity has been reported nearby.
Minimum magnitude displayed is 2.5.

Coastal Water Temperatures

Place Temperature
Atlantic City, NJ 70.0 °F

Nearby Weather Stations